1960 Severe Tropical Cyclone NOT_NAMED (1960075S12149)


IBTrACS version v04r00. Visit IBTrACS website for data access.
Please direct all questions to the IBTrACS Q and A forum

Storm track - Intensity - Wind Radii - Intensity Data - Source Data - All data

Summary Information

Storm ID 1960075S12149
Start Mar 14 23Z
Landfall Mar 20 05Z, Mar 21 14Z, Mar 26 09Z, Mar 26 14Z, Mar 26 21Z, Mar 27 06Z, Mar 27 11Z
Max Intensity 80 kt (Mar 26 00Z), 965 mb (Mar 26 00Z)
End Mar 27 23Z
ATCF IDs ,SH171960
Track status Best track data.

Storm track plot

Map of storm track

Intensity plots

Map of storm track

Radial wind information

No radial wind information for this storm


Position and Intensity Table

BASIN ISO_TIME_________ NATURE LAT LON WMO PRES BOM PRES DS824 WIND DS824 PRES
degrees north degrees east mb mb kts mb
SP 1960-03-14 23:00:00 NR -12.30 148.95 1005 1005
SP 1960-03-15 00:00:00 TS -12.29 148.86 1004 20 1005
SP 03:00:00 TS -12.33 148.64 1004 21 1004
SP 06:00:00 TS -12.36 148.43 1003 22 1003
SP 09:00:00 TS -12.38 148.21 1002 23 1002
SP 11:00:00 TS -12.38 148.06 1002 1002 24 1002
SP 12:00:00 TS -12.38 147.99 1002 25 1002
SP 15:00:00 TS -12.38 147.79 1002 25 1002
SP 18:00:00 TS -12.38 147.60 1002 25 1002
SP 21:00:00 TS -12.38 147.42 1002 25 1002
SP 23:00:00 TS -12.38 147.31 1002 1002 25 1002
SP 1960-03-16 00:00:00 TS -12.38 147.26 1002 25 1002
SP 03:00:00 TS -12.38 147.13 1002 25 1002
SP 06:00:00 TS -12.38 147.03 1002 25 1002
SP 09:00:00 TS -12.38 146.92 1002 25 1002
SP 11:00:00 TS -12.38 146.85 1002 1002 25 1002
SP 12:00:00 TS -12.38 146.80 1002 25 1002
SP 15:00:00 TS -12.38 146.64 1002 25 1002
SP 18:00:00 TS -12.38 146.48 1002 25 1002
SP 21:00:00 TS -12.38 146.35 1002 25 1002
SP 23:00:00 TS -12.38 146.28 1002 1002 25 1002
SP 1960-03-17 00:00:00 TS -12.38 146.24 1002 25 1002
SP 03:00:00 TS -12.38 146.13 1002 25 1002
SP 06:00:00 TS -12.38 146.02 1002 25 1002
SP 09:00:00 TS -12.38 145.92 1002 25 1002
SP 11:00:00 TS -12.38 145.84 1002 1002 25 1002
SP 12:00:00 TS -12.38 145.80 1002 25 1002
SP 15:00:00 TS -12.38 145.68 1002 25 1002
SP 18:00:00 TS -12.38 145.55 1002 25 1002
SP 21:00:00 TS -12.38 145.44 1002 25 1002
SP 23:00:00 TS -12.38 145.38 1002 1002 25 1002
SP 1960-03-18 00:00:00 TS -12.38 145.35 1002 25 1002
SP 03:00:00 TS -12.35 145.26 1002 25 1002
SP 06:00:00 TS -12.33 145.17 1002 25 1002
SP 09:00:00 TS -12.32 145.07 1002 25 1002
SP 11:00:00 TS -12.32 145.00 1002 1002 25 1002
SP 12:00:00 TS -12.32 144.96 1002 25 1002
SP 15:00:00 TS -12.32 144.81 1002 25 1002
SP 18:00:00 TS -12.32 144.66 1002 25 1002
SP 21:00:00 TS -12.32 144.53 1002 25 1002
SP 23:00:00 TS -12.32 144.44 1002 1002 25 1002
SP 1960-03-19 00:00:00 TS -12.32 144.40 1002 25 1002
SP 03:00:00 TS -12.32 144.29 1002 25 1002
SP 06:00:00 TS -12.32 144.18 1002 25 1002
SP 09:00:00 TS -12.32 144.08 1002 25 1002
SP 11:00:00 TS -12.32 144.02 1002 1002 25 1002
SP 12:00:00 TS -12.32 143.99 1001 25 1002
SP 15:00:00 TS -12.32 143.86 1001 26 1001
SP 16:00:00 TS -12.30 143.82 1001 26 1001
SP 18:00:00 TS -12.27 143.76 1000 27 1001
SP 21:00:00 TS -12.24 143.65 1000 28 1000
SP 23:00:00 TS -12.21 143.59 1000 1000 29 1000
SP 1960-03-20 00:00:00 TS -12.20 143.55 999 30 1000
SP 03:00:00 TS -12.20 143.33 998 32 999
SP 04:00:00 TS -12.20 143.24 998 33 998
SP 05:00:00 TS -12.20 143.14 998 998 34 998
SP 06:00:00 TS -12.20 143.03 998 35 998
SP 09:00:00 TS -12.20 142.69 999 32 999
SP 11:00:00 TS -12.21 142.42 1000 1000 30 999
SP 12:00:00 TS -12.21 142.28 1000 30 1000
SP 15:00:00 TS -12.25 141.87 1001 27 1001
SP 16:00:00 TS -12.28 141.72 1001 26 1001
SP 17:00:00 TS -12.31 141.57 1002 1002 25 1001
SP 18:00:00 TS -12.34 141.41 1002 1002 25 1002
SP 21:00:00 TS -12.44 140.85 1002 25 1002
SP 23:00:00 TS -12.51 140.43 1003 1003 25 1002
SP 1960-03-21 00:00:00 TS -12.54 140.20 1003 25 1003
SP 03:00:00 TS -12.65 139.50 1003 25 1003
SP 04:00:00 TS -12.69 139.26 1003 25 1003
SP 05:00:00 TS -12.72 139.01 1003 1003 25 1003
SP 06:00:00 TS -12.76 138.76 1003 25 1003
SP 09:00:00 TS -12.87 138.00 1003 25 1003
SP 11:00:00 TS -12.91 137.49 1003 25 1003
SP 11:30:00 TS -12.91 137.36 1003 1003 25 1003
SP 12:00:00 TS -12.91 137.23 1003 25 1003
SP 14:30:00 TS -12.87 136.59 1003 1003 25 1003
SP 15:00:00 TS -12.85 136.47 1003 25 1003
SP 16:00:00 TS -12.82 136.21 1003 25 1003
SP 17:30:00 TS -12.78 135.82 1003 1003 25 1003
SP 18:00:00 TS -12.76 135.69 1003 25 1003
SI 21:00:00 TS -12.66 134.90 1003 25 1003
SI 23:00:00 TS -12.63 134.38 1003 25 1003
SI 23:30:00 TS -12.64 134.26 1003 1003 25 1003
SI 1960-03-22 00:00:00 TS -12.65 134.13 1003 25 1003
SI 03:00:00 TS -12.83 133.37 1003 25 1003
SI 04:00:00 TS -12.91 133.13 1003 25 1003
SI 05:30:00 TS -13.01 132.78 1003 1003 25 1003
SI 06:00:00 TS -13.05 132.66 1003 25 1003
SI 09:00:00 TS -13.17 132.03 1003 25 1003
SI 11:00:00 TS -13.20 131.63 1003 25 1003
SI 11:30:00 TS -13.19 131.53 1003 1003 25 1003
SI 12:00:00 TS -13.18 131.43 1003 25 1003
SI 15:00:00 TS -13.04 130.84 1003 28 1001
SI 15:30:00 TS -13.00 130.74 1003 1003 29 1000
SI 16:00:00 TS -12.97 130.64 1002 29 1000
SI 17:30:00 TS -12.88 130.33 1001 31 999
SI 18:00:00 TS -12.85 130.21 1000 32 999
SI 21:00:00 TS -12.70 129.44 997 36 997
SI 23:00:00 TS -12.65 128.89 995 38 995
SI 23:30:00 TS -12.65 128.75 995 995 39 995
SI 1960-03-23 00:00:00 TS -12.65 128.62 994 40 995
SI 03:00:00 TS -12.70 127.86 989
SI 04:00:00 TS -12.75 127.62 988
SI 06:00:00 TS -12.86 127.12 985
SI 09:00:00 TS -13.06 126.37 981
SI 10:00:00 TS -13.15 126.12 980 980
SI 11:00:00 TS -13.23 125.87
SI 12:00:00 TS -13.32 125.61
SI 15:00:00 TS -13.58 124.84
SI 16:00:00 TS -13.68 124.59
SI 18:00:00 TS -13.86 124.11
SI 21:00:00 TS -14.16 123.42
SI 23:00:00 TS -14.35 122.98
SI 1960-03-24 00:00:00 TS -14.45 122.76 65 975
SI 01:00:00 TS -14.55 122.54 975 975
SI 03:00:00 TS -14.73 122.11 974
SI 04:00:00 TS -14.82 121.90 974
SI 06:00:00 TS -15.00 121.47 973
SI 09:00:00 TS -15.26 120.82 973
SI 10:00:00 TS -15.35 120.60 973 973
SI 11:00:00 TS -15.44 120.38
SI 12:00:00 TS -15.54 120.16
SI 15:00:00 TS -15.85 119.49
SI 16:00:00 TS -15.95 119.27
SI 18:00:00 TS -16.17 118.84
SI 21:00:00 TS -16.49 118.24
SI 23:00:00 TS -16.71 117.87
SI 1960-03-25 00:00:00 TS -16.82 117.70 70 970
SI 01:00:00 TS -16.94 117.54 970 970
SI 03:00:00 TS -17.17 117.22
SI 04:00:00 TS -17.30 117.08
SI 06:00:00 TS -17.55 116.79
SI 09:00:00 TS -17.93 116.37
SI 11:00:00 TS -18.20 116.11
SI 12:00:00 TS -18.34 115.97
SI 13:00:00 TS -18.48 115.83
SI 15:00:00 TS -18.78 115.56
SI 16:00:00 TS -18.94 115.43
SI 18:00:00 TS -19.27 115.16
SI 21:00:00 TS -19.83 114.77
SI 23:00:00 TS -20.25 114.53
SI 1960-03-26 00:00:00 TS -20.47 114.42 80 965
SI 01:00:00 TS -20.70 114.31 965 965
SI 03:00:00 TS -21.16 114.10 965
SI 04:00:00 TS -21.40 114.01 965
SI 06:00:00 TS -21.88 113.85 965
SI 09:00:00 TS -22.61 113.67 965
SI 10:00:00 TS -22.87 113.64 965 965
SI 11:00:00 TS -23.15 113.61 965
SI 12:00:00 TS -23.42 113.59 965
SI 14:00:00 TS -23.98 113.60 965 965
SI 15:00:00 TS -24.27 113.64 965
SI 16:00:00 TS -24.57 113.69 965 965
SI 18:00:00 TS -25.23 113.82 975 60 980
SI 19:00:00 TS -25.59 113.89 980 980 56 982
SI 20:00:00 TS -25.98 113.96 980 980 53 984
SI 21:00:00 TS -26.39 114.05 985 50 987
SI 22:00:00 TS -26.79 114.14 990 990 46 989
SI 23:00:00 TS -27.19 114.23 991 43 991
SI 1960-03-27 00:00:00 TS -27.58 114.34 992 40 994
SI 01:00:00 TS -27.96 114.44 994 994
SI 03:00:00 TS -28.81 114.66 994
SI 03:30:00 TS -29.03 114.72 995 995
SI 04:00:00 TS -29.19 114.76 995
SI 06:00:00 TS -30.00 114.98 995
SI 07:00:00 TS -30.37 115.10 996 996
SI 09:00:00 TS -31.20 115.42
SI 11:00:00 TS -32.09 115.77
SI 12:00:00 TS -32.49 116.10
SI 15:00:00 TS -33.66 116.64
SI 16:00:00 TS -34.00 116.83
SI 18:00:00 TS -34.63 117.17
SI 21:00:00 NR -35.82 117.25
SI 23:00:00 NR -36.60 117.30

Source Information

Agency Information
USA bsh171960.txt
TOKYO
CMA
HKO
NEWDELHI
REUNION
BOM IDCKMSTM0S.csv:Line=3010:unnamed
NADI
WELLINGTON
DS824 aus_area.dat:288:NOT NAMED
TD9636 cons_worldwide_trop_cyclone_18710101-19891231-006:Line=5625
TD9635
NEUMANN
MLC

All available IBTrACS Data

SEASON BASIN SUBBASIN ISO_TIME_________ NATURE LAT LON WMO PRES WMO AGENCY DIST2LAND LANDFALL IFLAG USA AGENCY USA ATCF_ID USA LAT USA LON USA SSHS BOM LAT BOM LON BOM PRES BOM PRES_METHOD DS824 LAT DS824 LON DS824 STAGE DS824 WIND DS824 PRES TD9636 LAT TD9636 LON TD9636 STAGE STORM SPEED STORM DIR
Year degrees north degrees east mb km km degrees north degrees east 1 degrees north degrees east mb degrees north degrees east kts mb degrees north degrees east kts degrees
1960 SP EA 1960-03-14 23:00:00 NR -12.30 148.95 1005 bom 214 214 ______O___O___ -1 -12.40 149.00 1005 -12.20 148.90 1 6 275
1960 SP EA 1960-03-15 00:00:00 TS -12.29 148.86 219 219 O_____P__OP___ jtwc_sh SH171960 -12.20 148.80 -1 -12.41 148.90 1004 -12.40 148.90 TC 20 1005 -12.21 148.85 1 5 264
1960 SP EA 03:00:00 TS -12.33 148.64 228 228 P_____P__PP___ SH171960 -12.26 148.66 -1 -12.44 148.61 1004 -12.43 148.60 TC 21 1004 -12.24 148.68 1 4 261
1960 SP EA 06:00:00 TS -12.36 148.43 244 244 O_____P__PP___ jtwc_sh SH171960 -12.30 148.50 -1 -12.47 148.32 1003 -12.46 148.30 TC 22 1003 -12.27 148.51 1 4 264
1960 SP EA 09:00:00 TS -12.38 148.21 247 246 P_____P__PP___ SH171960 -12.31 148.31 -1 -12.49 148.06 1002 -12.48 148.03 TC 23 1002 -12.29 148.33 1 4 267
1960 SP EA 11:00:00 TS -12.38 148.06 1002 bom 246 246 P_____O__PO___ SH171960 -12.30 148.17 -1 -12.50 147.90 1002 -12.50 147.87 TC 24 1002 -12.30 148.20 1 4 269
1960 SP EA 12:00:00 TS -12.38 147.99 246 246 O_____P__OP___ jtwc_sh SH171960 -12.30 148.10 -1 -12.50 147.83 1002 -12.50 147.80 TC 25 1002 -12.30 148.13 1 4 269
1960 SP EA 15:00:00 TS -12.38 147.79 247 247 P_____P__PP___ SH171960 -12.30 147.90 -1 -12.51 147.62 1002 -12.51 147.61 TC 25 1002 -12.31 147.92 1 4 270
1960 SP EA 18:00:00 TS -12.38 147.60 250 250 O_____P__PP___ jtwc_sh SH171960 -12.30 147.70 -1 -12.51 147.45 1002 -12.51 147.45 TC 25 1002 -12.31 147.72 1 4 270
1960 SP EA 21:00:00 TS -12.38 147.42 254 254 P_____P__PP___ SH171960 -12.30 147.49 -1 -12.50 147.29 1002 -12.50 147.32 TC 25 1002 -12.30 147.52 1 3 271
1960 SP EA 23:00:00 TS -12.38 147.31 1002 bom 257 257 P_____O__PO___ SH171960 -12.30 147.36 -1 -12.50 147.20 1002 -12.50 147.24 TC 25 1002 -12.30 147.40 1 3 271
1960 SP EA 1960-03-16 00:00:00 TS -12.38 147.26 257 257 O_____P__OP___ jtwc_sh SH171960 -12.30 147.30 -1 -12.50 147.15 1002 -12.50 147.20 TC 25 1002 -12.30 147.35 1 3 270
1960 SP EA 03:00:00 TS -12.38 147.13 265 265 P_____P__PP___ SH171960 -12.30 147.19 -1 -12.50 147.02 1002 -12.50 147.07 TC 25 1002 -12.30 147.22 1 2 270
1960 SP EA 06:00:00 TS -12.38 147.03 268 268 O_____P__PP___ jtwc_sh SH171960 -12.30 147.10 -1 -12.50 146.90 1002 -12.50 146.94 TC 25 1002 -12.30 147.10 1 2 270
1960 SP EA 09:00:00 TS -12.38 146.92 271 271 P_____P__PP___ SH171960 -12.30 147.01 -1 -12.50 146.78 1002 -12.50 146.82 TC 25 1002 -12.30 146.98 1 2 270
1960 SP EA 11:00:00 TS -12.38 146.85 1002 bom 275 275 P_____O__PO___ SH171960 -12.30 146.94 -1 -12.50 146.70 1002 -12.50 146.74 TC 25 1002 -12.30 146.90 1 2 270
1960 SP EA 12:00:00 TS -12.38 146.80 275 275 O_____P__OP___ jtwc_sh SH171960 -12.30 146.90 -1 -12.50 146.66 1002 -12.50 146.70 TC 25 1002 -12.30 146.85 1 3 270
1960 SP EA 15:00:00 TS -12.38 146.64 284 284 P_____P__PP___ SH171960 -12.30 146.70 -1 -12.50 146.53 1002 -12.50 146.57 TC 25 1002 -12.30 146.70 1 3 270
1960 SP EA 18:00:00 TS -12.38 146.48 288 288 O_____P__PP___ jtwc_sh SH171960 -12.30 146.50 -1 -12.50 146.41 1002 -12.50 146.45 TC 25 1002 -12.30 146.54 1 3 270
1960 SP EA 21:00:00 TS -12.38 146.35 294 288 P_____P__PP___ SH171960 -12.30 146.39 -1 -12.50 146.28 1002 -12.50 146.32 TC 25 1002 -12.30 146.39 1 2 270
1960 SP EA 23:00:00 TS -12.38 146.28 1002 bom 288 281 P_____O__PO___ SH171960 -12.30 146.33 -1 -12.50 146.20 1002 -12.50 146.24 TC 25 1002 -12.30 146.30 1 2 270
1960 SP EA 1960-03-17 00:00:00 TS -12.38 146.24 281 274 O_____P__OP___ jtwc_sh SH171960 -12.30 146.30 -1 -12.50 146.16 1002 -12.50 146.20 TC 25 1002 -12.30 146.26 1 2 270
1960 SP EA 03:00:00 TS -12.38 146.13 274 267 P_____P__PP___ SH171960 -12.30 146.20 -1 -12.50 146.03 1002 -12.50 146.07 TC 25 1002 -12.30 146.16 1 2 270
1960 SP EA 06:00:00 TS -12.38 146.02 267 261 O_____P__PP___ jtwc_sh SH171960 -12.30 146.10 -1 -12.50 145.90 1002 -12.50 145.94 TC 25 1002 -12.30 146.06 1 2 270
1960 SP EA 09:00:00 TS -12.38 145.92 261 255 P_____P__PP___ SH171960 -12.30 146.01 -1 -12.50 145.78 1002 -12.50 145.82 TC 25 1002 -12.30 145.97 1 2 270
1960 SP EA 11:00:00 TS -12.38 145.84 1002 bom 255 255 P_____O__PO___ SH171960 -12.30 145.94 -1 -12.50 145.70 1002 -12.50 145.74 TC 25 1002 -12.30 145.90 1 2 270
1960 SP EA 12:00:00 TS -12.38 145.80 255 245 O_____P__OP___ jtwc_sh SH171960 -12.30 145.90 -1 -12.50 145.66 1002 -12.50 145.70 TC 25 1002 -12.30 145.86 1 2 270
1960 SP EA 15:00:00 TS -12.38 145.68 245 234 P_____P__PP___ SH171960 -12.30 145.75 -1 -12.50 145.55 1002 -12.50 145.59 TC 25 1002 -12.31 145.74 1 2 270
1960 SP EA 18:00:00 TS -12.38 145.55 234 213 O_____P__PP___ jtwc_sh SH171960 -12.30 145.60 -1 -12.50 145.45 1002 -12.50 145.49 TC 25 1002 -12.31 145.61 1 2 269
1960 SP EA 21:00:00 TS -12.38 145.44 213 213 P_____P__PP___ SH171960 -12.31 145.49 -1 -12.50 145.36 1002 -12.50 145.40 TC 25 1002 -12.31 145.48 1 2 270
1960 SP EA 23:00:00 TS -12.38 145.38 1002 bom 213 213 P_____O__PO___ SH171960 -12.31 145.43 -1 -12.50 145.30 1002 -12.50 145.33 TC 25 1002 -12.30 145.40 1 2 273
1960 SP EA 1960-03-18 00:00:00 TS -12.38 145.35 203 203 O_____P__OP___ jtwc_sh SH171960 -12.30 145.40 -1 -12.50 145.28 1002 -12.50 145.30 TC 25 1002 -12.29 145.36 1 2 283
1960 SP EA 03:00:00 TS -12.35 145.26 203 192 P_____P__PP___ SH171960 -12.25 145.30 -1 -12.50 145.21 1002 -12.50 145.21 TC 25 1002 -12.27 145.26 1 2 286
1960 SP EA 06:00:00 TS -12.33 145.17 196 186 O_____P__PP___ jtwc_sh SH171960 -12.20 145.20 -1 -12.50 145.15 1002 -12.50 145.12 TC 25 1002 -12.24 145.17 1 2 281
1960 SP EA 09:00:00 TS -12.32 145.07 186 176 P_____P__PP___ SH171960 -12.19 145.11 -1 -12.50 145.07 1002 -12.50 145.01 TC 25 1002 -12.21 145.07 1 2 273
1960 SP EA 11:00:00 TS -12.32 145.00 1002 bom 176 176 P_____O__PO___ SH171960 -12.20 145.04 -1 -12.50 145.00 1002 -12.50 144.94 TC 25 1002 -12.20 145.00 1 2 270
1960 SP EA 12:00:00 TS -12.32 144.96 176 155 O_____P__OP___ jtwc_sh SH171960 -12.20 145.00 -1 -12.50 144.95 1002 -12.50 144.90 TC 25 1002 -12.20 144.96 1 3 270
1960 SP EA 15:00:00 TS -12.32 144.81 155 145 P_____P__PP___ SH171960 -12.20 144.85 -1 -12.50 144.78 1002 -12.50 144.75 TC 25 1002 -12.19 144.84 1 3 270
1960 SP EA 18:00:00 TS -12.32 144.66 145 124 O_____P__PP___ jtwc_sh SH171960 -12.20 144.70 -1 -12.50 144.59 1002 -12.50 144.59 TC 25 1002 -12.19 144.71 1 3 270
1960 SP EA 21:00:00 TS -12.32 144.53 124 113 P_____P__PP___ SH171960 -12.20 144.60 -1 -12.50 144.40 1002 -12.50 144.44 TC 25 1002 -12.20 144.59 1 3 270
1960 SP EA 23:00:00 TS -12.32 144.44 1002 bom 113 113 P_____O__PO___ SH171960 -12.20 144.54 -1 -12.50 144.30 1002 -12.50 144.34 TC 25 1002 -12.20 144.50 1 2 270
1960 SP EA 1960-03-19 00:00:00 TS -12.32 144.40 113 103 O_____P__OP___ jtwc_sh SH171960 -12.20 144.50 -1 -12.50 144.26 1002 -12.50 144.30 TC 25 1002 -12.20 144.46 1 2 270
1960 SP EA 03:00:00 TS -12.32 144.29 103 93 P_____P__PP___ SH171960 -12.20 144.35 -1 -12.50 144.18 1002 -12.50 144.22 TC 25 1002 -12.20 144.34 1 2 270
1960 SP EA 06:00:00 TS -12.32 144.18 93 83 O_____P__PP___ jtwc_sh SH171960 -12.20 144.20 -1 -12.50 144.11 1002 -12.50 144.15 TC 25 1002 -12.20 144.22 1 2 270
1960 SP EA 09:00:00 TS -12.32 144.08 83 73 P_____P__PP___ SH171960 -12.20 144.10 -1 -12.50 144.05 1002 -12.50 144.08 TC 25 1002 -12.20 144.09 1 2 270
1960 SP EA 11:00:00 TS -12.32 144.02 1002 bom 73 73 P_____O__PO___ SH171960 -12.20 144.04 -1 -12.50 144.00 1002 -12.50 144.03 TC 25 1002 -12.20 144.00 1 2 270
1960 SP EA 12:00:00 TS -12.32 143.99 73 63 O_____P__OP___ jtwc_sh SH171960 -12.20 144.00 -1 -12.50 143.97 1001 -12.50 144.00 TC 25 1002 -12.20 143.96 1 2 270
1960 SP EA 15:00:00 TS -12.32 143.86 63 54 P_____P__PP___ SH171960 -12.20 143.87 -1 -12.50 143.86 1001 -12.50 143.87 TC 26 1001 -12.19 143.84 1 2 276
1960 SP EA 16:00:00 TS -12.30 143.82 54 54 P_____P__PP___ SH171960 -12.20 143.81 -1 -12.50 143.82 1001 -12.50 143.82 TC 26 1001 -12.19 143.80 1 2 299
1960 SP EA 18:00:00 TS -12.27 143.76 54 46 O_____P__PP___ jtwc_sh SH171960 -12.20 143.70 -1 -12.50 143.73 1000 -12.50 143.72 TC 27 1001 -12.19 143.70 1 2 292
1960 SP EA 21:00:00 TS -12.24 143.65 55 48 P_____P__PP___ SH171960 -12.20 143.51 -1 -12.50 143.60 1000 -12.50 143.56 TC 28 1000 -12.19 143.54 1 2 287
1960 SP EA 23:00:00 TS -12.21 143.59 1000 bom 48 48 P_____O__PO___ SH171960 -12.20 143.38 -1 -12.50 143.50 1000 -12.50 143.45 TC 29 1000 -12.20 143.40 1 2 289
1960 SP EA 1960-03-20 00:00:00 TS -12.20 143.55 39 21 O_____P__OP___ jtwc_sh SH171960 -12.20 143.30 -1 -12.50 143.45 999 -12.50 143.40 TC 30 1000 -12.20 143.32 1 4 273
1960 SP EA 03:00:00 TS -12.20 143.33 21 21 P_____P__PP___ SH171960 -12.19 143.07 -1 -12.51 143.31 998 -12.51 143.27 TC 32 999 -12.21 143.06 1 5 270
1960 SP EA 04:00:00 TS -12.20 143.24 10 10 P_____P__PP___ SH171960 -12.19 142.99 -1 -12.51 143.26 998 -12.51 143.22 TC 33 998 -12.21 142.97 1 6 270
1960 SP EA 05:00:00 TS -12.20 143.14 998 bom 0 0 P_____O__PP___ SH171960 -12.19 142.90 -1 -12.50 143.20 998 -12.51 143.16 TC 34 998 -12.22 142.87 1 6 270
1960 SP EA 06:00:00 TS -12.20 143.03 0 0 O_____P__OP___ jtwc_sh SH171960 -12.20 142.80 -1 -12.48 143.15 998 -12.50 143.10 TC 35 998 -12.23 142.76 1 7 270
1960 SP EA 09:00:00 TS -12.20 142.69 0 0 P_____P__PP___ SH171960 -12.24 142.46 -1 -12.42 142.99 999 -12.43 142.90 TC 32 999 -12.26 142.43 1 7 270
1960 SP EA 11:00:00 TS -12.21 142.42 1000 bom 0 0 P_____O__PO___ SH171960 -12.28 142.22 -1 -12.40 142.80 1000 -12.40 142.72 TC 30 999 -12.30 142.20 1 8 268
1960 SP EA 12:00:00 TS -12.21 142.28 0 0 O_____P__OP___ jtwc_sh SH171960 -12.30 142.10 -1 -12.38 142.67 1000 -12.40 142.60 TC 30 1000 -12.32 142.11 1 8 265
1960 SP EA 15:00:00 TS -12.25 141.87 0 0 P_____P__PP___ SH171960 -12.39 141.82 -1 -12.39 142.18 1001 -12.45 142.19 TC 27 1001 -12.41 141.82 1 8 263
1960 SP EA 16:00:00 TS -12.28 141.72 0 0 P_____P__PP___ SH171960 -12.43 141.73 -1 -12.43 142.00 1001 -12.49 142.02 TC 26 1001 -12.44 141.71 1 9 260
1960 SP EA 17:00:00 TS -12.31 141.57 1002 bom 10 10 P_____O__PP___ SH171960 -12.46 141.62 -1 -12.50 141.80 1002 -12.54 141.82 TC 25 1001 -12.48 141.60 1 9 259
1960 SP EA 18:00:00 TS -12.34 141.41 1002 bom 32 32 O_____O__OP___ jtwc_sh SH171960 -12.50 141.50 -1 -12.60 141.60 1002 -12.60 141.60 TC 25 1002 -12.51 141.48 1 11 259
1960 SP EA 21:00:00 TS -12.44 140.85 89 89 P_____P__PP___ SH171960 -12.60 141.07 -1 -12.86 140.80 1002 -12.85 140.79 TC 25 1002 -12.62 141.05 1 12 260
1960 SP EA 23:00:00 TS -12.51 140.43 1003 bom 130 130 P_____O__PO___ SH171960 -12.67 140.71 -1 -13.00 140.20 1003 -13.02 140.19 TC 25 1002 -12.70 140.70 1 13 261
1960 SP EA 1960-03-21 00:00:00 TS -12.54 140.20 152 152 O_____P__OP___ jtwc_sh SH171960 -12.70 140.50 -1 -13.07 139.92 1003 -13.10 139.90 TC 25 1003 -12.75 140.49 1 14 261
1960 SP EA 03:00:00 TS -12.65 139.50 228 228 P_____P__PP___ SH171960 -12.80 139.75 -1 -13.23 139.11 1003 -13.24 139.15 TC 25 1003 -12.92 139.78 1 14 261
1960 SP EA 04:00:00 TS -12.69 139.26 249 221 P_____P__PP___ SH171960 -12.83 139.47 -1 -13.27 138.85 1003 -13.27 138.92 TC 25 1003 -12.97 139.52 1 15 262
1960 SP EA 05:00:00 TS -12.72 139.01 1003 bom 221 200 P_____O__PP___ SH171960 -12.87 139.19 -1 -13.30 138.60 1003 -13.30 138.70 TC 25 1003 -13.01 139.24 1 15 262
1960 SP EA 06:00:00 TS -12.76 138.76 203 127 O_____P__PP___ jtwc_sh SH171960 -12.90 138.90 -1 -13.32 138.36 1003 -13.31 138.47 TC 25 1003 -13.05 138.96 1 15 262
1960 SP EA 09:00:00 TS -12.87 138.00 127 83 P_____P__PP___ SH171960 -13.06 138.06 -1 -13.34 137.71 1003 -13.32 137.83 TC 25 1003 -13.12 138.09 1 15 263
1960 SP EA 11:00:00 TS -12.91 137.49 83 73 P_____P__PO___ SH171960 -13.11 137.49 -1 -13.31 137.30 1003 -13.31 137.41 TC 25 1003 -13.10 137.50 1 15 266
1960 SP EA 11:30:00 TS -12.91 137.36 1003 bom 73 63 P_____O__PP___ SH171960 -13.11 137.34 -1 -13.30 137.20 1003 -13.31 137.31 TC 25 1003 -13.06 137.36 1 15 269
1960 SP EA 12:00:00 TS -12.91 137.23 54 0 O_____P__OP___ jtwc_sh SH171960 -13.10 137.20 -1 -13.28 137.10 1003 -13.30 137.20 TC 25 1003 -13.02 137.21 1 15 274
1960 SP EA 14:30:00 TS -12.87 136.59 1003 bom 0 0 P_____O__PP___ SH171960 -12.91 136.48 -1 -13.20 136.60 1003 -13.26 136.68 TC 25 1003 -12.75 136.47 1 15 275
1960 SP EA 15:00:00 TS -12.85 136.47 0 0 P_____P__PP___ SH171960 -12.85 136.34 -1 -13.19 136.49 1003 -13.25 136.58 TC 25 1003 -12.69 136.32 1 15 277
1960 SP EA 16:00:00 TS -12.82 136.21 0 0 P_____P__PP___ SH171960 -12.74 136.06 -1 -13.19 136.27 1003 -13.23 136.36 TC 25 1003 -12.56 136.03 1 15 277
1960 SP EA 17:30:00 TS -12.78 135.82 1003 bom 0 0 P_____O__PP___ SH171960 -12.56 135.64 -1 -13.20 135.90 1003 -13.21 136.02 TC 25 1003 -12.38 135.59 1 15 277
1960 SP EA 18:00:00 TS -12.76 135.69 0 0 O_____P__OP___ jtwc_sh SH171960 -12.50 135.50 -1 -13.20 135.77 1003 -13.20 135.90 TC 25 1003 -12.32 135.44 1 15 277
1960 SI WA 21:00:00 TS -12.66 134.90 0 0 P_____P__PP___ SH171960 -12.11 134.66 -1 -13.21 134.96 1003 -13.20 135.10 TC 25 1003 -12.05 134.61 1 15 276
1960 SI WA 23:00:00 TS -12.63 134.38 0 0 P_____P__PO___ SH171960 -11.98 134.14 -1 -13.20 134.36 1003 -13.20 134.51 TC 25 1003 -12.00 134.10 1 15 272
1960 SI WA 23:30:00 TS -12.64 134.26 1003 bom 0 0 P_____O__PP___ SH171960 -11.98 134.02 -1 -13.20 134.20 1003 -13.20 134.36 TC 25 1003 -12.04 133.99 1 15 266
1960 SI WA 1960-03-22 00:00:00 TS -12.65 134.13 0 0 O_____P__OP___ jtwc_sh SH171960 -12.00 133.90 -1 -13.20 134.04 1003 -13.20 134.20 TC 25 1003 -12.09 133.87 1 15 257
1960 SI WA 03:00:00 TS -12.83 133.37 0 0 P_____P__PP___ SH171960 -12.51 133.27 -1 -13.15 133.01 1003 -13.16 133.18 TC 25 1003 -12.55 133.25 1 15 255
1960 SI WA 04:00:00 TS -12.91 133.13 0 0 P_____P__PP___ SH171960 -12.75 133.08 -1 -13.13 132.67 1003 -13.14 132.84 TC 25 1003 -12.74 133.05 1 15 252
1960 SI WA 05:30:00 TS -13.01 132.78 1003 bom 0 0 P_____O__PP___ SH171960 -13.10 132.80 -1 -13.10 132.20 1003 -13.11 132.35 TC 25 1003 -13.03 132.77 1 14 253
1960 SI WA 06:00:00 TS -13.05 132.66 0 0 O_____P__OP___ jtwc_sh SH171960 -13.20 132.70 -1 -13.09 132.06 1003 -13.10 132.20 TC 25 1003 -13.13 132.67 1 13 258
1960 SI WA 09:00:00 TS -13.17 132.03 0 0 P_____P__PP___ SH171960 -13.68 132.12 -1 -13.05 131.30 1003 -13.05 131.41 TC 25 1003 -13.66 132.10 1 12 261
1960 SI WA 11:00:00 TS -13.20 131.63 0 0 P_____P__PO___ SH171960 -13.87 131.71 -1 -13.01 130.89 1003 -13.02 130.98 TC 25 1003 -13.90 131.70 1 12 268
1960 SI WA 11:30:00 TS -13.19 131.53 1003 bom 0 0 P_____O__PP___ SH171960 -13.89 131.61 -1 -13.00 130.80 1003 -13.01 130.89 TC 25 1003 -13.91 131.59 1 12 275
1960 SI WA 12:00:00 TS -13.18 131.43 0 0 O_____P__OP___ jtwc_sh SH171960 -13.90 131.50 -1 -12.99 130.71 1003 -13.00 130.80 TC 25 1003 -13.91 131.48 1 12 283
1960 SI WA 15:00:00 TS -13.04 130.84 0 0 P_____P__PP___ SH171960 -13.67 130.81 -1 -12.91 130.26 1003 -12.94 130.44 TC 28 1001 -13.76 130.79 1 12 285
1960 SI WA 15:30:00 TS -13.00 130.74 1003 bom 0 0 P_____O__PP___ SH171960 -13.61 130.70 -1 -12.90 130.20 1003 -12.93 130.39 TC 29 1000 -13.72 130.67 1 12 288
1960 SI WA 16:00:00 TS -12.97 130.64 0 0 P_____P__PP___ SH171960 -13.55 130.58 -1 -12.90 130.16 1002 -12.92 130.33 TC 29 1000 -13.68 130.55 1 13 287
1960 SI WA 17:30:00 TS -12.88 130.33 bom 0 0 P_____I__PP___ SH171960 -13.36 130.22 -1 -12.90 130.00 1001 -12.90 130.10 TC 31 999 -13.53 130.20 1 13 287
1960 SI WA 18:00:00 TS -12.85 130.21 15 15 O_____P__IP___ jtwc_sh SH171960 -13.30 130.10 -1 -12.90 129.90 1000 -12.90 130.00 TC 32 999 -13.47 130.08 1 15 281
1960 SI WA 21:00:00 TS -12.70 129.44 83 83 P_____P__PP___ SH171960 -13.10 129.40 -1 -12.89 128.94 997 -12.88 129.09 TC 36 997 -13.16 129.37 1 16 279
1960 SI WA 23:00:00 TS -12.65 128.89 137 137 P_____P__PO___ SH171960 -13.02 128.93 -1 -12.90 128.18 995 -12.89 128.37 TC 38 995 -13.00 128.90 1 16 275
1960 SI WA 23:30:00 TS -12.65 128.75 995 bom 156 156 P_____O__PP___ SH171960 -13.01 128.82 -1 -12.90 128.00 995 -12.89 128.18 TC 39 995 -12.99 128.79 1 16 271
1960 SI WA 1960-03-23 00:00:00 TS -12.65 128.62 164 150 O_____P__OP___ jtwc_sh SH171960 -13.00 128.70 -1 -12.90 127.87 994 -12.90 128.00 TC 40 995 -12.97 128.67 1 15 266
1960 SI WA 03:00:00 TS -12.70 127.86 150 139 P_____P__PP___ SH171960 -13.02 127.99 -1 -12.96 127.22 989 -12.99 127.07 TC -12.96 128.00 1 15 264
1960 SI WA 04:00:00 TS -12.75 127.62 134 112 P_____P__PP___ SH171960 -13.04 127.76 -1 -12.99 127.04 988 -13.03 126.78 TC -12.97 127.78 1 15 258
1960 SI WA 06:00:00 TS -12.86 127.12 100 92 O_____P__PP___ jtwc_sh SH171960 -13.10 127.30 -1 -13.06 126.70 985 -13.14 126.20 TC -13.01 127.33 1 15 255
1960 SI WA 09:00:00 TS -13.06 126.37 95 95 P_____P__PP___ SH171960 -13.13 126.66 -1 -13.23 126.19 981 -13.35 125.38 TC -13.11 126.66 1 15 254
1960 SI WA 10:00:00 TS -13.15 126.12 980 bom 100 89 P_____O__PP___ SH171960 -13.15 126.44 -1 -13.30 126.00 980 -13.43 125.12 TC -13.16 126.43 1 16 252
1960 SI WA 11:00:00 TS -13.23 125.87 92 84 P_____P__PO___ SH171960 -13.17 126.23 -1 -13.38 125.74 -13.51 124.86 TC -13.20 126.20 2 16 251
1960 SI WA 12:00:00 TS -13.32 125.61 95 93 O_____P__PP___ jtwc_sh SH171960 -13.20 126.00 -1 -13.47 125.47 -13.60 124.61 TC -13.23 125.96 2 16 250
1960 SI WA 15:00:00 TS -13.58 124.84 116 116 P_____P__PP___ SH171960 -13.33 125.26 -1 -13.79 124.58 -13.90 123.87 TC -13.35 125.23 2 16 250
1960 SI WA 16:00:00 TS -13.68 124.59 119 119 P_____P__PP___ SH171960 -13.38 125.00 -1 -13.91 124.26 -14.00 123.63 TC -13.40 124.99 2 15 249
1960 SI WA 18:00:00 TS -13.86 124.11 142 142 O_____P__PP___ jtwc_sh SH171960 -13.50 124.50 -1 -14.15 123.62 -14.22 123.16 TC -13.50 124.50 2 15 247
1960 SI WA 21:00:00 TS -14.16 123.42 187 187 P_____P__PP___ SH171960 -13.69 123.78 -1 -14.53 122.67 -14.55 122.47 TC -13.67 123.77 2 14 246
1960 SI WA 23:00:00 TS -14.35 122.98 201 201 P_____P__PO___ SH171960 -13.83 123.32 -1 -14.77 122.06 -14.78 122.02 TC -13.80 123.30 1 14 245
1960 SI WA 1960-03-24 00:00:00 TS -14.45 122.76 211 211 O_____P__OP___ jtwc_sh SH171960 -13.90 123.10 -1 -14.89 121.78 -14.90 121.80 TC 65 975 -13.86 123.07 1 14 246
1960 SI WA 01:00:00 TS -14.55 122.54 975 bom 227 211 P_____O__PP___ SH171960 -13.96 122.88 -1 -15.00 121.50 975 -15.00 121.55 TC -13.92 122.85 1 14 246
1960 SI WA 03:00:00 TS -14.73 122.11 218 213 P_____P__PP___ SH171960 -14.09 122.44 -1 -15.18 121.01 974 -15.21 121.05 TC -14.05 122.41 1 14 246
1960 SI WA 04:00:00 TS -14.82 121.90 218 214 P_____P__PP___ SH171960 -14.16 122.23 -1 -15.26 120.78 974 -15.31 120.81 TC -14.12 122.20 1 14 247
1960 SI WA 06:00:00 TS -15.00 121.47 225 225 O_____P__PP___ jtwc_sh SH171960 -14.30 121.80 -1 -15.43 120.34 973 -15.53 120.33 TC -14.26 121.77 1 14 247
1960 SI WA 09:00:00 TS -15.26 120.82 255 255 P_____P__PP___ SH171960 -14.53 121.16 -1 -15.70 119.71 973 -15.87 119.62 TC -14.51 121.13 1 14 247
1960 SI WA 10:00:00 TS -15.35 120.60 973 bom 262 262 P_____O__PP___ SH171960 -14.61 120.95 -1 -15.80 119.50 973 -15.98 119.39 TC -14.60 120.92 1 14 247
1960 SI WA 11:00:00 TS -15.44 120.38 278 278 P_____P__PO___ SH171960 -14.70 120.73 -1 -15.91 119.28 -16.10 119.16 TC -14.70 120.70 1 14 246
1960 SI WA 12:00:00 TS -15.54 120.16 286 286 O_____P__PP___ jtwc_sh SH171960 -14.80 120.50 -1 -16.02 119.05 -16.21 118.94 TC -14.80 120.47 1 14 245
1960 SI WA 15:00:00 TS -15.85 119.49 332 327 P_____P__PP___ SH171960 -15.14 119.74 -1 -16.39 118.39 -16.56 118.31 TC -15.13 119.75 1 14 244
1960 SI WA 16:00:00 TS -15.95 119.27 341 341 P_____P__PP___ SH171960 -15.26 119.48 -1 -16.52 118.18 -16.68 118.10 TC -15.25 119.51 1 14 243
1960 SI WA 18:00:00 TS -16.17 118.84 382 382 O_____P__PP___ jtwc_sh SH171960 -15.50 119.00 -1 -16.79 117.76 -16.91 117.71 TC -15.49 119.04 1 14 241
1960 SI WA 21:00:00 TS -16.49 118.24 413 397 P_____P__PP___ SH171960 -15.85 118.40 -1 -17.19 117.17 -17.26 117.18 TC -15.86 118.39 1 13 240
1960 SI WA 23:00:00 TS -16.71 117.87 400 393 P_____P__PO___ SH171960 -16.08 118.06 -1 -17.45 116.82 -17.49 116.85 TC -16.10 118.00 1 12 237
1960 SI WA 1960-03-25 00:00:00 TS -16.82 117.70 397 391 O_____P__OP___ jtwc_sh SH171960 -16.20 117.90 -1 -17.58 116.65 -17.60 116.70 TC 70 970 -16.20 117.83 1 12 235
1960 SI WA 01:00:00 TS -16.94 117.54 970 bom 395 370 P_____O__PP___ SH171960 -16.32 117.75 -1 -17.70 116.50 970 -17.70 116.55 TC -16.30 117.67 1 12 232
1960 SI WA 03:00:00 TS -17.17 117.22 370 362 P_____P__PP___ SH171960 -16.56 117.48 -1 -17.91 116.22 -17.90 116.29 TC -16.49 117.38 1 11 231
1960 SI WA 04:00:00 TS -17.30 117.08 362 346 P_____P__PP___ SH171960 -16.67 117.35 -1 -18.01 116.10 -18.00 116.16 TC -16.59 117.24 1 11 228
1960 SI WA 06:00:00 TS -17.55 116.79 346 303 O_____P__PP___ jtwc_sh SH171960 -16.90 117.10 -1 -18.21 115.87 -18.20 115.93 TC -16.79 116.99 1 11 227
1960 SI WA 09:00:00 TS -17.93 116.37 303 273 P_____P__PP___ SH171960 -17.18 116.70 -1 -18.52 115.57 -18.53 115.60 TC -17.13 116.64 1 11 225
1960 SI WA 11:00:00 TS -18.20 116.11 275 267 P_____P__PO___ SH171960 -17.39 116.43 -1 -18.75 115.38 -18.77 115.40 TC -17.40 116.40 1 11 223
1960 SI WA 12:00:00 TS -18.34 115.97 267 249 O_____P__OP___ jtwc_sh SH171960 -17.50 116.30 -1 -18.87 115.29 -18.90 115.30 TC -17.53 116.26 1 12 223
1960 SI WA 13:00:00 TS -18.48 115.83 bom 253 231 P_____O__PP___ SH171960 -17.62 116.17 -1 -19.00 115.20 -19.03 115.18 TC -17.66 116.11 1 12 221
1960 SI WA 15:00:00 TS -18.78 115.56 231 227 P_____P__PP___ SH171960 -17.88 115.90 -1 -19.29 114.98 -19.29 114.95 TC -17.95 115.83 1 12 220
1960 SI WA 16:00:00 TS -18.94 115.43 233 216 P_____P__PP___ SH171960 -18.04 115.77 -1 -19.45 114.87 -19.43 114.84 TC -18.11 115.69 1 13 217
1960 SI WA 18:00:00 TS -19.27 115.16 207 185 O_____P__PP___ jtwc_sh SH171960 -18.40 115.50 -1 -19.78 114.65 -19.73 114.63 TC -18.46 115.41 1 13 215
1960 SI WA 21:00:00 TS -19.83 114.77 185 167 P_____P__PP___ SH171960 -19.05 115.08 -1 -20.30 114.35 -20.22 114.33 TC -19.09 115.03 1 14 211
1960 SI WA 23:00:00 TS -20.25 114.53 172 151 P_____P__PO___ SH171960 -19.59 114.82 -1 -20.65 114.16 -20.60 114.17 TC -19.60 114.80 2 14 207
1960 SI WA 1960-03-26 00:00:00 TS -20.47 114.42 143 126 O_____P__OP___ jtwc_sh SH171960 -19.90 114.70 -1 -20.83 114.08 -20.80 114.10 TC 80 965 -19.89 114.68 2 15 205
1960 SI WA 01:00:00 TS -20.70 114.31 965 bom 126 89 P_____O__PP___ SH171960 -20.23 114.58 -1 -21.00 114.00 965 -20.96 114.01 TC -20.21 114.57 2 15 204
1960 SI WA 03:00:00 TS -21.16 114.10 78 55 P_____P__PP___ SH171960 -20.96 114.36 -1 -21.23 113.86 965 -21.30 113.85 TC -20.89 114.36 2 15 202
1960 SI WA 04:00:00 TS -21.40 114.01 55 15 P_____P__PP___ SH171960 -21.34 114.26 -1 -21.35 113.80 965 -21.48 113.77 TC -21.25 114.26 2 15 198
1960 SI WA 06:00:00 TS -21.88 113.85 20 0 O_____P__PP___ jtwc_sh SH171960 -22.10 114.10 -1 -21.62 113.69 965 -21.85 113.64 TC -22.00 114.10 2 15 194
1960 SI WA 09:00:00 TS -22.61 113.67 0 0 P_____P__PP___ SH171960 -23.16 113.93 -1 -22.22 113.55 965 -22.51 113.51 TC -23.15 113.94 2 15 191
1960 SI WA 10:00:00 TS -22.87 113.64 965 bom 20 20 P_____O__PP___ SH171960 -23.51 113.91 -1 -22.50 113.50 965 -22.77 113.49 TC -23.53 113.91 2 16 185
1960 SI WA 11:00:00 TS -23.15 113.61 20 20 P_____P__PO___ SH171960 -23.86 113.89 -1 -22.85 113.41 965 -23.04 113.48 TC -23.90 113.90 1 17 184
1960 SI WA 12:00:00 TS -23.42 113.59 20 0 O_____P__PP___ jtwc_sh SH171960 -24.20 113.90 -1 -23.23 113.33 965 -23.33 113.48 TC -24.23 113.90 1 17 0
1960 SI WA 14:00:00 TS -23.98 113.60 965 bom 0 0 P_____O__PP___ SH171960 -24.88 113.94 -1 -24.00 113.30 965 -23.98 113.52 TC -24.89 113.93 1 17 177
1960 SI WA 15:00:00 TS -24.27 113.64 0 0 P_____P__PP___ SH171960 -25.21 113.99 -1 -24.34 113.38 965 -24.34 113.56 TC -25.21 113.97 1 18 172
1960 SI WA 16:00:00 TS -24.57 113.69 965 bom 0 0 P_____O__PP___ SH171960 -25.55 114.05 -1 -24.70 113.50 965 4 -24.73 113.62 TC -25.54 114.03 1 20 171
1960 SI WA 18:00:00 TS -25.23 113.82 0 0 O_____P__OP___ jtwc_sh SH171960 -26.20 114.20 -1 -25.53 113.77 975 -25.60 113.80 TC 60 980 -26.18 114.17 1 21 170
1960 SI WA 19:00:00 TS -25.59 113.89 980 bom 15 9 P_____O__PP___ SH171960 -26.52 114.27 -1 -26.00 113.90 980 -26.08 113.92 TC 56 982 -26.50 114.26 1 23 171
1960 SI WA 20:00:00 TS -25.98 113.96 980 bom 9 9 P_____O__PP___ SH171960 -26.83 114.36 -1 -26.50 114.00 980 -26.59 114.05 TC 53 984 -26.82 114.35 1 24 170
1960 SI WA 21:00:00 TS -26.39 114.05 0 0 P_____P__PP___ SH171960 -27.14 114.45 -1 -27.08 114.13 985 -27.13 114.20 TC 50 987 -27.14 114.46 1 25 169
1960 SI WA 22:00:00 TS -26.79 114.14 990 bom 0 0 P_____O__PP___ SH171960 -27.46 114.55 -1 -27.70 114.30 990 -27.68 114.36 TC 46 989 -27.47 114.58 1 25 168
1960 SI WA 23:00:00 TS -27.19 114.23 0 0 P_____P__PO___ SH171960 -27.77 114.67 -1 -28.29 114.51 991 -28.24 114.53 TC 43 991 -27.80 114.70 1 24 167
1960 SI WA 1960-03-27 00:00:00 TS -27.58 114.34 0 0 O_____P__OP___ jtwc_sh SH171960 -28.10 114.80 -1 -28.86 114.72 992 -28.80 114.70 TC 40 994 -28.14 114.83 1 24 167
1960 SI WA 01:00:00 TS -27.96 114.44 994 bom 0 0 P_____O___P___ SH171960 -28.44 114.95 -1 -29.40 114.90 994 TC -28.47 114.98 1 25 167
1960 SI WA 03:00:00 TS -28.81 114.66 0 0 P_____P___P___ SH171960 -29.13 115.28 -1 -30.37 115.07 994 TC -29.16 115.31 1 26 167
1960 SI WA 03:30:00 TS -29.03 114.72 995 bom 9 9 P_____O___P___ SH171960 -29.30 115.36 -1 -30.60 115.10 995 TC -29.33 115.39 1 23 166
1960 SI WA 04:00:00 TS -29.19 114.76 14 0 P_____P___P___ SH171960 -29.48 115.45 -1 -30.83 115.13 995 TC -29.50 115.48 1 24 166
1960 SI WA 06:00:00 TS -30.00 114.98 0 0 O_____P___P___ jtwc_sh SH171960 -30.20 115.80 -1 -31.74 115.24 995 -30.20 115.82 1 25 166
1960 SI WA 07:00:00 TS -30.37 115.10 996 bom 0 0 P_____O___P___ SH171960 -30.56 115.97 -1 -32.20 115.30 996 -30.55 116.00 1 25 163
1960 SI WA 09:00:00 TS -31.20 115.42 9 0 P_________P___ SH171960 -31.29 116.29 -1 -31.27 116.32 1 27 161
1960 SI WA 11:00:00 TS -32.09 115.77 0 0 P_________O___ SH171960 -32.03 116.58 -1 -32.00 116.60 2 28 156
1960 SI WA 12:00:00 TS -32.49 116.10 0 0 O_________P___ jtwc_sh SH171960 -32.40 116.70 -1 -32.37 116.72 2 26 155
1960 SI WA 15:00:00 TS -33.66 116.64 0 0 P_________P___ SH171960 -33.50 116.99 -1 -33.50 116.98 2 24 158
1960 SI WA 16:00:00 TS -34.00 116.83 0 0 P_________P___ SH171960 -33.87 117.06 -1 -33.88 117.05 2 21 156
1960 SI WA 18:00:00 TS -34.63 117.17 0 0 O_________P___ jtwc_sh SH171960 -34.60 117.20 -1 -34.65 117.15 2 22 169
1960 SI WA 21:00:00 NR -35.82 117.25 82 82 __________P___ SH171960 -1 -35.82 117.25 2 24 177
1960 SI WA 23:00:00 NR -36.60 117.30 169 __________O___ SH171960 -1 -36.60 117.30 1 24 177